createdAt,value
2022-10-22T00:00:16.362Z,100573.75
2022-10-22T00:02:43.382Z,100573.75
2022-10-22T00:05:11.170Z,100574.66
2022-10-22T00:07:38.318Z,100573.75
2022-10-22T00:10:07.434Z,100577.19
2022-10-22T00:12:34.529Z,100573.75
2022-10-22T00:15:01.282Z,100574.88
2022-10-22T00:17:28.072Z,100577.72
2022-10-22T00:19:54.919Z,100574.28
2022-10-22T00:22:21.657Z,100576.53
2022-10-22T00:24:48.421Z,100574.06
2022-10-22T00:27:15.478Z,100577.78
2022-10-22T00:29:42.300Z,100574.34
2022-10-22T00:32:09.069Z,100581.59
2022-10-22T00:34:35.893Z,100578.31
2022-10-22T00:37:02.644Z,100566.97
2022-10-22T00:39:29.748Z,100559.81
2022-10-22T00:41:58.237Z,100572.66
2022-10-22T00:45:11.656Z,100570.91
2022-10-22T00:48:28.342Z,100580.03
2022-10-22T00:51:04.998Z,100572.88
2022-10-22T00:53:47.634Z,100581.75
2022-10-22T00:56:14.841Z,100579.44
2022-10-22T00:58:54.088Z,100576.00
2022-10-22T01:01:28.988Z,100574.38
2022-10-22T01:03:56.300Z,100571.94
2022-10-22T01:06:31.497Z,100568.50
2022-10-22T01:09:44.457Z,100574.91
2022-10-22T01:12:47.662Z,100577.84
2022-10-22T01:15:53.001Z,100570.00
2022-10-22T01:18:46.536Z,100579.84
2022-10-22T01:21:25.655Z,100572.94
2022-10-22T01:24:09.796Z,100571.50
2022-10-22T01:27:07.954Z,100555.47
2022-10-22T01:29:42.575Z,100564.84
2022-10-22T01:32:17.084Z,100562.88
2022-10-22T01:34:52.294Z,100570.03
2022-10-22T01:37:23.723Z,100568.28
2022-10-22T01:39:51.974Z,100570.03
2022-10-22T01:42:18.987Z,100564.63
2022-10-22T01:44:46.559Z,100566.56
2022-10-22T01:47:52.411Z,100568.28
2022-10-22T01:50:52.131Z,100562.88
2022-10-22T01:56:36.251Z,100555.72
2022-10-22T01:59:18.565Z,100557.47
2022-10-22T02:01:58.565Z,100559.44
2022-10-22T02:04:44.520Z,100556.00
2022-10-22T02:07:18.335Z,100557.97
2022-10-22T02:09:46.677Z,100561.66
2022-10-22T02:12:15.289Z,100559.69
2022-10-22T02:14:45.202Z,100561.41
2022-10-22T02:17:19.812Z,100571.13
2022-10-22T02:20:25.957Z,100565.59
2022-10-22T02:22:53.156Z,100563.13
2022-10-22T02:25:24.915Z,100562.16
2022-10-22T02:28:23.097Z,100557.47
2022-10-22T02:31:00.789Z,100550.56
2022-10-22T02:33:39.262Z,100559.69
2022-10-22T02:36:08.505Z,100559.69
2022-10-22T02:38:37.163Z,100560.53
2022-10-22T02:41:04.693Z,100558.81
2022-10-22T02:43:41.933Z,100550.81
2022-10-22T02:46:10.385Z,100554.78
2022-10-22T02:48:37.698Z,100561.28
2022-10-22T02:51:04.497Z,100565.84
2022-10-22T02:53:31.410Z,100566.09
2022-10-22T02:55:59.452Z,100560.94
2022-10-22T02:58:26.305Z,100555.75
2022-10-22T03:00:53.198Z,100564.75
2022-10-22T03:03:20.001Z,100566.34
2022-10-22T03:05:46.768Z,100568.94
2022-10-22T03:08:13.626Z,100571.78
2022-10-22T03:10:40.401Z,100570.03
2022-10-22T03:13:07.108Z,100568.94
2022-10-22T03:15:35.310Z,100571.78
2022-10-22T03:18:03.786Z,100577.44
2022-10-22T03:20:30.571Z,100573.13
2022-10-22T03:22:58.085Z,100574.84
2022-10-22T03:25:28.511Z,100583.69
2022-10-22T03:28:03.720Z,100581.13
2022-10-22T03:30:30.518Z,100586.56
2022-10-22T03:32:57.480Z,100588.13
2022-10-22T03:35:24.689Z,100586.28
2022-10-22T03:37:52.052Z,100585.44
2022-10-22T03:40:20.409Z,100591.47
2022-10-22T03:42:47.427Z,100598.59
2022-10-22T03:45:14.253Z,100594.28
2022-10-22T03:47:41.387Z,100592.31
2022-10-22T03:50:09.304Z,100598.59
2022-10-22T03:52:39.390Z,100597.38
2022-10-22T03:55:08.203Z,100598.09
2022-10-22T03:57:34.994Z,100601.91
2022-10-22T04:00:01.777Z,100610.41
2022-10-22T04:02:28.628Z,100608.44
2022-10-22T04:04:55.394Z,100618.28
2022-10-22T04:07:22.201Z,100611.88
2022-10-22T04:09:48.962Z,100610.16
2022-10-22T04:12:15.707Z,100614.69
2022-10-22T04:14:42.526Z,100619.25
2022-10-22T04:17:11.913Z,100608.66
2022-10-22T04:19:38.662Z,100623.22
2022-10-22T04:22:05.432Z,100620.50
2022-10-22T04:24:32.579Z,100617.56
2022-10-22T04:26:59.728Z,100619.50
2022-10-22T04:29:26.859Z,100618.66
2022-10-22T04:31:54.112Z,100611.53
2022-10-22T04:34:20.910Z,100620.63
2022-10-22T04:36:47.930Z,100617.81
2022-10-22T04:39:15.048Z,100625.81
2022-10-22T04:41:41.911Z,100619.50
2022-10-22T04:44:12.273Z,100621.25
2022-10-22T04:46:43.351Z,100624.91
2022-10-22T04:49:10.229Z,100619.66
2022-10-22T04:51:37.062Z,100613.22
2022-10-22T04:54:04.133Z,100625.69
2022-10-22T04:56:32.771Z,100624.69
2022-10-22T04:59:08.502Z,100628.13
2022-10-22T05:01:41.905Z,100631.44
2022-10-22T05:04:16.679Z,100635.03
2022-10-22T05:06:44.652Z,100636.97
2022-10-22T05:09:18.875Z,100638.22
2022-10-22T05:11:50.091Z,100646.59
2022-10-22T05:14:21.485Z,100635.75
2022-10-22T05:16:49.416Z,100634.06
2022-10-22T05:19:36.601Z,100641.94
2022-10-22T05:22:05.641Z,100638.22
2022-10-22T05:24:34.374Z,100636.97
2022-10-22T05:27:01.169Z,100646.84
2022-10-22T05:29:28.101Z,100642.41
2022-10-22T05:31:55.040Z,100637.59
2022-10-22T05:34:21.978Z,100648.44
2022-10-22T05:36:48.725Z,100649.78
2022-10-22T05:39:15.813Z,100644.84
2022-10-22T05:41:42.664Z,100642.88
2022-10-22T05:44:12.901Z,100646.31
2022-10-22T05:46:40.208Z,100646.81
2022-10-22T05:49:08.050Z,100646.56
2022-10-22T05:51:37.255Z,100655.56
2022-10-22T05:54:07.940Z,100656.44
2022-10-22T05:56:36.981Z,100665.31
2022-10-22T06:01:35.768Z,100666.03
2022-10-22T06:04:07.344Z,100672.44
2022-10-22T06:06:45.460Z,100676.16
2022-10-22T06:09:34.433Z,100682.53
2022-10-22T06:12:01.429Z,100678.13
2022-10-22T06:14:29.391Z,100683.53
2022-10-22T06:16:59.800Z,100682.66
2022-10-22T06:19:27.129Z,100686.72
2022-10-22T06:21:54.272Z,100693.88
2022-10-22T06:24:21.482Z,100703.88
2022-10-22T06:26:52.579Z,100700.25
2022-10-22T06:29:19.454Z,100710.38
2022-10-22T06:31:46.293Z,100706.94
2022-10-22T06:34:14.647Z,100717.78
2022-10-22T06:36:44.619Z,100716.81
2022-10-22T06:39:13.904Z,100723.19
2022-10-22T06:41:41.453Z,100728.38
2022-10-22T06:44:17.655Z,100727.13
2022-10-22T06:46:44.503Z,100731.31
2022-10-22T06:49:15.857Z,100736.50
2022-10-22T06:51:42.722Z,100741.69
2022-10-22T06:54:10.534Z,100745.13
2022-10-22T06:56:37.810Z,100746.47
2022-10-22T06:59:04.649Z,100750.88
2022-10-22T07:01:34.358Z,100751.78
2022-10-22T07:04:02.359Z,100764.09
2022-10-22T07:06:30.244Z,100764.56
2022-10-22T07:08:59.431Z,100769.72
2022-10-22T07:11:39.050Z,100775.91
2022-10-22T07:14:05.838Z,100781.06
2022-10-22T07:16:32.795Z,100781.69
2022-10-22T07:19:05.096Z,100779.81
2022-10-22T07:21:32.571Z,100784.50
2022-10-22T07:23:59.977Z,100789.94
2022-10-22T07:26:30.949Z,100793.38
2022-10-22T07:29:01.694Z,100789.69
2022-10-22T07:31:29.210Z,100795.97
2022-10-22T07:33:56.546Z,100793.91
2022-10-22T07:36:23.486Z,100805.72
2022-10-22T07:38:57.265Z,100802.03
2022-10-22T07:41:25.157Z,100814.25
2022-10-22T07:43:52.237Z,100802.41
2022-10-22T07:46:19.832Z,100805.97
2022-10-22T07:48:46.715Z,100812.13
2022-10-22T07:51:13.813Z,100815.34
2022-10-22T07:53:40.828Z,100812.88
2022-10-22T07:56:08.610Z,100819.53
2022-10-22T07:58:36.314Z,100824.31
2022-10-22T08:01:05.795Z,100828.69
2022-10-22T08:03:33.348Z,100828.28
2022-10-22T08:06:01.250Z,100826.00
2022-10-22T08:08:30.873Z,100823.34
2022-10-22T08:11:00.982Z,100829.63
2022-10-22T08:13:30.637Z,100849.75
2022-10-22T08:16:00.276Z,100854.91
2022-10-22T08:18:27.380Z,100846.41
2022-10-22T08:20:54.156Z,100846.34
2022-10-22T08:23:25.901Z,100851.47
2022-10-22T08:25:54.368Z,100852.97
2022-10-22T08:28:22.158Z,100854.41
2022-10-22T08:30:49.547Z,100857.72
2022-10-22T08:33:16.341Z,100859.59
2022-10-22T08:35:49.520Z,100871.06
2022-10-22T08:38:16.513Z,100869.66
2022-10-22T08:43:38.165Z,100877.00
2022-10-22T08:46:46.866Z,100880.91
2022-10-22T08:49:22.733Z,100888.41
2022-10-22T08:51:50.107Z,100894.63
2022-10-22T08:54:25.099Z,100900.00
2022-10-22T08:57:39.160Z,100905.75
2022-10-22T09:00:20.180Z,100902.91
2022-10-22T09:03:23.992Z,100910.91
2022-10-22T09:06:14.102Z,100906.34
2022-10-22T09:08:45.377Z,100909.78
2022-10-22T09:11:40.931Z,100915.81
2022-10-22T09:14:18.287Z,100920.81
2022-10-22T09:17:16.666Z,100924.00
2022-10-22T09:20:03.050Z,100919.25
2022-10-22T09:22:46.812Z,100919.25
2022-10-22T09:25:16.532Z,100925.00
2022-10-22T09:27:43.842Z,100925.00
2022-10-22T09:30:21.788Z,100937.88
2022-10-22T09:33:07.121Z,100937.34
2022-10-22T09:35:56.438Z,100943.63
2022-10-22T09:38:31.911Z,100945.34
2022-10-22T09:41:03.722Z,100954.22
2022-10-22T09:43:32.793Z,100952.25
2022-10-22T09:46:07.051Z,100956.41
2022-10-22T09:48:41.542Z,100954.28
2022-10-22T09:51:20.231Z,100960.56
2022-10-22T09:54:01.601Z,100964.47
2022-10-22T09:56:36.777Z,100966.91
2022-10-22T09:59:04.225Z,100977.25
2022-10-22T10:01:38.561Z,100978.09
2022-10-22T10:04:13.544Z,100989.88
2022-10-22T10:06:44.238Z,100994.44
2022-10-22T10:09:21.978Z,100993.34
2022-10-22T10:11:55.031Z,100998.78
2022-10-22T10:14:39.473Z,101002.22
2022-10-22T10:17:50.626Z,101011.25
2022-10-22T10:20:45.928Z,101005.94
2022-10-22T10:23:30.287Z,101014.25
2022-10-22T10:26:34.764Z,101013.41
2022-10-22T10:29:48.086Z,101019.13
2022-10-22T10:32:48.243Z,101013.53
2022-10-22T10:35:29.131Z,101020.59
2022-10-22T10:38:25.915Z,101019.19
2022-10-22T10:41:11.575Z,101022.66
2022-10-22T10:43:57.099Z,101026.41
2022-10-22T10:46:49.872Z,101021.84
2022-10-22T10:49:26.674Z,101020.41
2022-10-22T10:52:31.496Z,101017.66
2022-10-22T10:55:15.205Z,101017.22
2022-10-22T10:58:25.666Z,101016.66
2022-10-22T11:01:16.007Z,101012.31
2022-10-22T11:04:09.824Z,101019.47
2022-10-22T11:06:39.634Z,101018.34
2022-10-22T11:09:45.719Z,101014.59
2022-10-22T11:12:36.838Z,101018.75
2022-10-22T11:15:19.175Z,101032.09
2022-10-22T11:17:48.916Z,101029.50
2022-10-22T11:20:48.745Z,101032.94
2022-10-22T11:23:50.763Z,101031.22
2022-10-22T11:26:46.138Z,101027.78
2022-10-22T11:29:28.227Z,101018.59
2022-10-22T11:31:59.114Z,101024.91
2022-10-22T11:34:37.879Z,101021.75
2022-10-22T11:37:06.981Z,101022.84
2022-10-22T11:39:50.693Z,101018.78
2022-10-22T11:42:30.136Z,101020.91
2022-10-22T11:45:25.949Z,101022.81
2022-10-22T11:48:09.958Z,101029.75
2022-10-22T11:50:54.238Z,101026.88
2022-10-22T11:53:39.448Z,101022.31
2022-10-22T11:56:13.012Z,101018.00
2022-10-22T11:58:44.991Z,101020.56
2022-10-22T12:01:11.697Z,101024.88
2022-10-22T12:04:16.490Z,101029.75
2022-10-22T12:06:57.756Z,101030.31
2022-10-22T12:09:30.185Z,101025.09
2022-10-22T12:12:13.427Z,101022.09
2022-10-22T12:15:01.027Z,101017.50
2022-10-22T12:17:29.516Z,101034.78
2022-10-22T12:20:07.454Z,101023.53
2022-10-22T12:22:39.208Z,101030.13
2022-10-22T12:25:22.840Z,101025.34
2022-10-22T12:27:59.043Z,101034.47
2022-10-22T12:30:31.120Z,101034.47
2022-10-22T12:33:01.275Z,101035.91
2022-10-22T12:35:44.130Z,101042.16
2022-10-22T12:38:20.169Z,101035.78
2022-10-22T12:40:50.196Z,101043.28
2022-10-22T12:43:25.219Z,101040.69
2022-10-22T12:45:52.935Z,101039.59
2022-10-22T12:48:29.482Z,101035.91
2022-10-22T12:51:01.014Z,101030.19
2022-10-22T12:53:43.389Z,101033.75
2022-10-22T12:56:21.077Z,101032.47
2022-10-22T12:59:36.165Z,101034.38
2022-10-22T13:02:17.062Z,101036.50
2022-10-22T13:05:24.914Z,101032.34
2022-10-22T13:08:17.179Z,101039.22
2022-10-22T13:10:52.964Z,101039.13
2022-10-22T13:13:50.709Z,101032.06
2022-10-22T13:16:27.754Z,101028.34
2022-10-22T13:18:54.676Z,101034.25
2022-10-22T13:21:26.494Z,101025.19
2022-10-22T13:24:03.625Z,101031.00
2022-10-22T13:26:35.427Z,101025.34
2022-10-22T13:29:10.714Z,101021.25
2022-10-22T13:31:44.596Z,101023.88
2022-10-22T13:34:19.834Z,101018.41
2022-10-22T13:36:47.617Z,101032.72
2022-10-22T13:39:24.859Z,101033.69
2022-10-22T13:41:51.934Z,101030.03
2022-10-22T13:44:19.858Z,101023.81
2022-10-22T13:46:48.576Z,101024.28
2022-10-22T13:49:19.856Z,101026.69
2022-10-22T13:51:47.334Z,101032.38
2022-10-22T13:54:19.810Z,101031.47
2022-10-22T13:56:46.918Z,101018.91
2022-10-22T13:59:15.340Z,101027.81
2022-10-22T14:01:45.816Z,101025.28
2022-10-22T14:04:15.421Z,101032.00
2022-10-22T14:06:42.482Z,101021.59
2022-10-22T14:09:15.819Z,101021.28
2022-10-22T14:11:43.143Z,101026.22
2022-10-22T14:14:14.026Z,101033.22
2022-10-22T14:16:40.874Z,101033.22
2022-10-22T14:19:16.447Z,101024.59
2022-10-22T14:21:43.640Z,101029.63
2022-10-22T14:24:13.162Z,101026.03
2022-10-22T14:26:40.543Z,101036.22
2022-10-22T14:29:09.837Z,101038.94
2022-10-22T14:34:14.878Z,101036.41
2022-10-22T14:36:45.247Z,101035.22
2022-10-22T14:39:13.739Z,101037.53
2022-10-22T14:41:41.353Z,101039.34
2022-10-22T14:44:13.893Z,101044.59
2022-10-22T14:46:42.639Z,101039.28
2022-10-22T14:49:09.571Z,101042.28
2022-10-22T14:51:36.292Z,101043.16
2022-10-22T14:54:03.190Z,101056.25
2022-10-22T14:56:30.014Z,101059.13
2022-10-22T14:58:56.802Z,101053.72
2022-10-22T15:01:23.566Z,101058.16
2022-10-22T15:03:50.367Z,101061.63
2022-10-22T15:06:17.585Z,101061.94
2022-10-22T15:08:45.354Z,101064.59
2022-10-22T15:11:14.886Z,101068.09
2022-10-22T15:13:42.325Z,101069.50
2022-10-22T15:16:12.740Z,101071.47
2022-10-22T15:18:39.651Z,101067.94
2022-10-22T15:21:15.167Z,101076.78
2022-10-22T15:23:42.003Z,101076.69
2022-10-22T15:26:10.794Z,101083.75
2022-10-22T15:28:39.778Z,101083.69
2022-10-22T15:31:08.272Z,101085.31
2022-10-22T15:33:35.009Z,101087.94
2022-10-22T15:36:15.478Z,101090.59
2022-10-22T15:38:42.287Z,101082.41
2022-10-22T15:41:13.316Z,101086.94
2022-10-22T15:43:40.128Z,101085.13
2022-10-22T15:46:18.329Z,101095.22
2022-10-22T15:48:45.908Z,101087.22
2022-10-22T15:51:19.335Z,101080.91
2022-10-22T15:53:58.597Z,101082.78
2022-10-22T15:56:28.562Z,101080.94
2022-10-22T15:59:03.937Z,101074.63
2022-10-22T16:01:33.856Z,101080.97
2022-10-22T16:04:02.752Z,101078.09
2022-10-22T16:06:43.906Z,101073.50
2022-10-22T16:09:17.799Z,101071.63
2022-10-22T16:11:45.702Z,101071.50
2022-10-22T16:14:15.609Z,101065.91
2022-10-22T16:16:46.287Z,101074.81
2022-10-22T16:19:17.426Z,101069.06
2022-10-22T16:21:44.960Z,101076.09
2022-10-22T16:24:12.924Z,101083.09
2022-10-22T16:26:39.726Z,101082.06
2022-10-22T16:29:08.334Z,101078.31
2022-10-22T16:31:35.071Z,101082.59
2022-10-22T16:34:01.869Z,101085.16
2022-10-22T16:36:28.713Z,101091.16
2022-10-22T16:38:56.560Z,101095.16
2022-10-22T16:41:25.841Z,101096.72
2022-10-22T16:43:55.257Z,101096.44
2022-10-22T16:46:23.474Z,101102.53
2022-10-22T16:48:52.798Z,101095.03
2022-10-22T16:51:24.075Z,101100.19
2022-10-22T16:53:56.441Z,101095.56
2022-10-22T16:56:24.998Z,101091.66
2022-10-22T16:58:57.849Z,101092.44
2022-10-22T17:01:29.096Z,101085.03
2022-10-22T17:03:59.411Z,101094.88
2022-10-22T17:06:26.625Z,101100.09
2022-10-22T17:08:53.995Z,101104.09
2022-10-22T17:11:23.968Z,101098.06
2022-10-22T17:13:53.946Z,101110.06
2022-10-22T17:16:24.862Z,101110.22
2022-10-22T17:18:53.984Z,101109.47
2022-10-22T17:21:22.679Z,101114.31
2022-10-22T17:23:54.464Z,101114.44
2022-10-22T17:26:23.066Z,101114.81
2022-10-22T17:28:50.989Z,101119.66
2022-10-22T17:31:24.296Z,101119.06
2022-10-22T17:33:53.938Z,101119.34
2022-10-22T17:36:22.679Z,101125.16
2022-10-22T17:38:53.821Z,101108.09
2022-10-22T17:41:31.182Z,101120.47
2022-10-22T17:44:03.800Z,101123.97
2022-10-22T17:46:32.145Z,101124.63
2022-10-22T17:49:07.010Z,101116.09
2022-10-22T17:51:34.117Z,101114.88
2022-10-22T17:54:02.468Z,101119.34
2022-10-22T17:56:31.448Z,101120.31
2022-10-22T17:58:59.850Z,101121.19
2022-10-22T18:01:32.991Z,101116.63
2022-10-22T18:04:08.002Z,101128.00
2022-10-22T18:06:35.786Z,101127.38
2022-10-22T18:09:08.155Z,101133.16
2022-10-22T18:11:37.276Z,101128.72
2022-10-22T18:14:05.090Z,101127.09
2022-10-22T18:16:31.908Z,101126.00
2022-10-22T18:18:58.943Z,101121.31
2022-10-22T18:21:29.252Z,101122.88
2022-10-22T18:23:57.946Z,101131.53
2022-10-22T18:26:26.982Z,101135.31
2022-10-22T18:28:57.754Z,101135.31
2022-10-22T18:31:26.941Z,101132.38
2022-10-22T18:36:27.765Z,101130.28
2022-10-22T18:39:01.546Z,101136.34
2022-10-22T18:41:31.576Z,101137.09
2022-10-22T18:44:03.167Z,101139.56
2022-10-22T18:46:33.659Z,101147.34
2022-10-22T18:49:01.408Z,101142.75
2022-10-22T18:51:31.522Z,101151.91
2022-10-22T18:54:05.502Z,101152.75
2022-10-22T18:56:40.693Z,101146.47
2022-10-22T18:59:15.018Z,101143.03
2022-10-22T19:01:41.785Z,101143.25
2022-10-22T19:04:08.496Z,101134.59
2022-10-22T19:06:37.123Z,101133.13
2022-10-22T19:09:05.071Z,101127.06
2022-10-22T19:11:32.553Z,101126.56
2022-10-22T19:13:59.342Z,101123.47
2022-10-22T19:16:27.098Z,101118.50
2022-10-22T19:19:01.389Z,101112.69
2022-10-22T19:21:28.273Z,101117.50
2022-10-22T19:24:00.059Z,101112.31
2022-10-22T19:26:29.949Z,101104.50
2022-10-22T19:28:59.131Z,101101.16
2022-10-22T19:31:27.717Z,101095.88
2022-10-22T19:33:55.363Z,101107.59
2022-10-22T19:36:25.166Z,101110.31
2022-10-22T19:38:52.145Z,101110.31
2022-10-22T19:41:22.465Z,101111.69
2022-10-22T19:43:52.273Z,101119.34
2022-10-22T19:46:21.322Z,101110.72
2022-10-22T19:48:48.774Z,101113.69
2022-10-22T19:51:20.525Z,101112.63
2022-10-22T19:53:48.186Z,101110.66
2022-10-22T19:56:19.790Z,101106.94
2022-10-22T19:58:46.887Z,101104.94
2022-10-22T20:01:17.119Z,101100.53
2022-10-22T20:03:43.985Z,101103.25
2022-10-22T20:06:12.656Z,101096.94
2022-10-22T20:08:40.330Z,101108.41
2022-10-22T20:11:17.206Z,101106.47
2022-10-22T20:13:46.680Z,101111.91
2022-10-22T20:16:19.763Z,101111.91
2022-10-22T20:18:46.617Z,101113.59
2022-10-22T20:21:18.936Z,101119.03
2022-10-22T20:23:47.085Z,101112.75
2022-10-22T20:26:13.875Z,101115.81
2022-10-22T20:28:40.640Z,101109.53
2022-10-22T20:31:18.960Z,101113.22
2022-10-22T20:33:46.506Z,101111.63
2022-10-22T20:36:18.895Z,101120.00
2022-10-22T20:38:48.167Z,101121.97
2022-10-22T20:41:21.900Z,101123.94
2022-10-22T20:43:51.187Z,101123.94
2022-10-22T20:46:22.417Z,101126.75
2022-10-22T20:48:53.486Z,101128.63
2022-10-22T20:51:20.764Z,101129.59
2022-10-22T20:53:47.761Z,101138.72
2022-10-22T20:56:15.621Z,101137.72
2022-10-22T20:58:47.977Z,101133.06
2022-10-22T21:01:23.968Z,101131.00
2022-10-22T21:03:53.155Z,101126.53
2022-10-22T21:06:23.060Z,101120.25
2022-10-22T21:08:52.286Z,101118.63
2022-10-22T21:11:20.576Z,101131.31
2022-10-22T21:13:47.495Z,101134.78
2022-10-22T21:16:17.508Z,101130.09
2022-10-22T21:18:45.333Z,101132.06
2022-10-22T21:21:12.843Z,101131.09
2022-10-22T21:23:40.215Z,101135.78
2022-10-22T21:26:07.157Z,101136.75
2022-10-22T21:28:36.560Z,101128.72
2022-10-22T21:31:07.513Z,101117.13
2022-10-22T21:33:40.056Z,101126.50
2022-10-22T21:36:09.149Z,101133.91
2022-10-22T21:38:37.718Z,101138.94
2022-10-22T21:41:10.419Z,101133.53
2022-10-22T21:43:39.848Z,101126.38
2022-10-22T21:46:10.796Z,101132.78
2022-10-22T21:48:40.325Z,101120.22
2022-10-22T21:51:13.246Z,101116.88
2022-10-22T21:53:41.246Z,101129.31
2022-10-22T21:56:15.367Z,101130.28
2022-10-22T21:58:42.693Z,101126.84
2022-10-22T22:01:09.600Z,101131.41
2022-10-22T22:03:36.570Z,101137.69
2022-10-22T22:06:06.407Z,101137.47
2022-10-22T22:08:34.100Z,101137.25
2022-10-22T22:11:14.696Z,101134.38
2022-10-22T22:13:42.009Z,101134.53
2022-10-22T22:16:13.031Z,101126.38
2022-10-22T22:18:41.235Z,101127.47
2022-10-22T22:21:19.560Z,101127.47
2022-10-22T22:23:48.666Z,101114.00
2022-10-22T22:26:25.227Z,101109.59
2022-10-22T22:28:56.820Z,101110.56
2022-10-22T22:31:26.294Z,101113.28
2022-10-22T22:34:08.424Z,101111.56
2022-10-22T22:36:41.678Z,101115.34
2022-10-22T22:39:12.874Z,101112.75
2022-10-22T22:41:40.935Z,101107.59
2022-10-22T22:44:07.971Z,101105.84
2022-10-22T22:46:35.228Z,101106.06
2022-10-22T22:49:02.072Z,101107.78
2022-10-22T22:51:28.850Z,101096.94
2022-10-22T22:53:58.746Z,101100.75
2022-10-22T22:56:28.841Z,101097.16
2022-10-22T22:58:56.943Z,101089.78
2022-10-22T23:01:30.879Z,101080.03
2022-10-22T23:04:11.038Z,101085.56
2022-10-22T23:06:38.313Z,101091.09
2022-10-22T23:09:09.074Z,101080.25
2022-10-22T23:11:36.378Z,101074.22
2022-10-22T23:14:05.937Z,101074.47
2022-10-22T23:16:36.776Z,101070.75
2022-10-22T23:19:05.709Z,101074.22
2022-10-22T23:21:39.272Z,101078.66
2022-10-22T23:24:11.394Z,101084.19
2022-10-22T23:26:44.904Z,101086.06
2022-10-22T23:29:17.180Z,101080.84
2022-10-22T23:31:44.934Z,101089.25
2022-10-22T23:36:50.659Z,101081.66
2022-10-22T23:39:22.908Z,101082.25
2022-10-22T23:41:51.237Z,101078.28
2022-10-22T23:44:17.999Z,101079.84
2022-10-22T23:46:44.785Z,101073.81
2022-10-22T23:49:12.546Z,101070.31
2022-10-22T23:51:40.992Z,101072.28
2022-10-22T23:54:14.012Z,101065.16
2022-10-22T23:56:41.210Z,101048.34
2022-10-22T23:59:08.648Z,101054.25
